Portland International Airport
KPDX : now visible

Airfield :











YOU CAN JOIN US ON...

 
LOGIN :

Register | Disclaimer

   EN    FR    IT 

 









Legend :    VFR   Marginal VFR   IFR   Intensive IFR   Very Intensive IFR
Visi :
Ceiling :
>= 8 km
>= 3000ft
5 to 8 km
1000 to 3000 ft
1500m to 5 km
500 to 1000 ft
800 to 1500m
200 to 500 ft
< 800m
< 200 ft
Symbols :   Thunderstorms  Fog  Heavy snow  Heavy precipitations  Wind > 20 kt






- Airport Elevation : 31 ft
- IATA code : PDX


KPDX - Portland International

CURRENT METAR :
  • 171402Z 18004KT 10SM FEW055 OVC080 11/09 A3019 RMK AO2 T01110089

EXPIRED METARs :
  • 171353Z 14006KT 10SM FEW054 OVC080 11/08 A3018 RMK AO2 SLP219 T01110083
  • 171253Z 12007KT 10SM FEW065 BKN080 BKN100 11/08 A3017 RMK AO2 SLP216 T01060083
  • 171153Z 11008KT 10SM BKN065 OVC075 10/09 A3017 RMK AO2 SLP216 60000 T01000089 10117 20094 58018

TAF KPDX
Valid from the 17 at 12:00 until the 18 at 12:00 UTC


171147Z 1712/1812 06003KT P6SM VCSH FEW060 BKN080
FM171700 15007KT P6SM -RA SCT025 OVC045
FM172100 17008KT 6SM -RA BR SCT015 OVC030
FM180100 VRB03KT P6SM SCT025 OVC040
FM180600 VRB03KT 5SM BR BKN025 OVC035



MET'MAP, your aeronautical weather chart ! - Copyright ORBIFLY December 2007 - Disclaimer

ORBIFLY MET'MAP TEAM :

Programming & Development : Alexandra Zaïnal
Concept & Development : Baudouin d'Aumeries
Co-Development & Prog : Marc-Olivier Méhu
Technical & hardware support : Manuel Goepfert

Contact : metmap@orbifly.com




SOURCES & CREDITS :

   NOAA       Earth
Advisory